sensor_id;sensor_type;location;lat;lon;timestamp;P1;durP1;ratioP1;P2;durP2;ratioP2
71381;SDS011;60099;45.660;13.804;2022-09-03T00:01:37;4.35;;;2.70;;
71381;SDS011;60099;45.660;13.804;2022-09-03T00:04:17;2.97;;;2.30;;
71381;SDS011;60099;45.660;13.804;2022-09-03T00:06:51;3.25;;;2.20;;
71381;SDS011;60099;45.660;13.804;2022-09-03T00:09:35;3.22;;;2.35;;
71381;SDS011;60099;45.660;13.804;2022-09-03T00:12:08;3.70;;;2.40;;
71381;SDS011;60099;45.660;13.804;2022-09-03T00:14:57;4.00;;;2.47;;
71381;SDS011;60099;45.660;13.804;2022-09-03T00:17:29;2.97;;;2.30;;
71381;SDS011;60099;45.660;13.804;2022-09-03T00:20:10;3.83;;;2.40;;
71381;SDS011;60099;45.660;13.804;2022-09-03T00:22:47;4.55;;;2.63;;
71381;SDS011;60099;45.660;13.804;2022-09-03T00:25:23;6.00;;;2.75;;
71381;SDS011;60099;45.660;13.804;2022-09-03T00:27:57;4.00;;;2.33;;
71381;SDS011;60099;45.660;13.804;2022-09-03T00:30:26;4.95;;;2.40;;
71381;SDS011;60099;45.660;13.804;2022-09-03T00:33:00;3.95;;;2.55;;
71381;SDS011;60099;45.660;13.804;2022-09-03T00:38:05;4.78;;;2.80;;
71381;SDS011;60099;45.660;13.804;2022-09-03T00:43:06;2.95;;;2.22;;
71381;SDS011;60099;45.660;13.804;2022-09-03T00:46:05;4.13;;;2.60;;
71381;SDS011;60099;45.660;13.804;2022-09-03T00:48:55;5.32;;;2.70;;
71381;SDS011;60099;45.660;13.804;2022-09-03T00:51:40;5.13;;;2.60;;
71381;SDS011;60099;45.660;13.804;2022-09-03T00:54:31;4.28;;;2.60;;
71381;SDS011;60099;45.660;13.804;2022-09-03T00:57:14;4.20;;;2.65;;
71381;SDS011;60099;45.660;13.804;2022-09-03T01:00:12;4.95;;;2.60;;
71381;SDS011;60099;45.660;13.804;2022-09-03T01:08:53;4.78;;;2.38;;
71381;SDS011;60099;45.660;13.804;2022-09-03T01:11:48;4.90;;;2.60;;
71381;SDS011;60099;45.660;13.804;2022-09-03T01:14:50;4.00;;;2.45;;
71381;SDS011;60099;45.660;13.804;2022-09-03T01:20:25;4.60;;;2.70;;
71381;SDS011;60099;45.660;13.804;2022-09-03T01:28:09;3.78;;;2.45;;
71381;SDS011;60099;45.660;13.804;2022-09-03T01:33:49;3.72;;;2.40;;
71381;SDS011;60099;45.660;13.804;2022-09-03T01:36:37;3.70;;;2.20;;
71381;SDS011;60099;45.660;13.804;2022-09-03T01:39:06;4.40;;;2.47;;
71381;SDS011;60099;45.660;13.804;2022-09-03T01:44:50;4.35;;;2.35;;
71381;SDS011;60099;45.660;13.804;2022-09-03T01:50:02;4.55;;;2.22;;
71381;SDS011;60099;45.660;13.804;2022-09-03T01:53:07;4.40;;;2.50;;
71381;SDS011;60099;45.660;13.804;2022-09-03T01:55:53;5.18;;;2.40;;
71381;SDS011;60099;45.660;13.804;2022-09-03T01:58:44;4.25;;;2.35;;
71381;SDS011;60099;45.660;13.804;2022-09-03T02:01:21;3.45;;;2.20;;
71381;SDS011;60099;45.660;13.804;2022-09-03T02:03:54;4.05;;;2.50;;
71381;SDS011;60099;45.660;13.804;2022-09-03T02:06:24;3.38;;;2.40;;
71381;SDS011;60099;45.660;13.804;2022-09-03T02:08:51;4.13;;;2.40;;
71381;SDS011;60099;45.660;13.804;2022-09-03T02:11:17;4.15;;;2.38;;
71381;SDS011;60099;45.660;13.804;2022-09-03T02:13:44;3.90;;;2.20;;
71381;SDS011;60099;45.660;13.804;2022-09-03T02:16:24;3.95;;;2.67;;
71381;SDS011;60099;45.660;13.804;2022-09-03T02:19:01;3.70;;;2.20;;
71381;SDS011;60099;45.660;13.804;2022-09-03T02:21:32;3.92;;;2.40;;
71381;SDS011;60099;45.660;13.804;2022-09-03T02:24:01;2.92;;;2.28;;
71381;SDS011;60099;45.660;13.804;2022-09-03T02:26:29;5.45;;;2.70;;
71381;SDS011;60099;45.660;13.804;2022-09-03T02:28:55;4.85;;;2.30;;
71381;SDS011;60099;45.660;13.804;2022-09-03T02:31:32;4.30;;;2.40;;
71381;SDS011;60099;45.660;13.804;2022-09-03T02:33:58;4.57;;;2.30;;
71381;SDS011;60099;45.660;13.804;2022-09-03T02:36:24;4.68;;;2.58;;
71381;SDS011;60099;45.660;13.804;2022-09-03T02:38:59;4.13;;;2.33;;
71381;SDS011;60099;45.660;13.804;2022-09-03T02:41:26;3.75;;;2.42;;
71381;SDS011;60099;45.660;13.804;2022-09-03T02:47:12;3.90;;;2.53;;
71381;SDS011;60099;45.660;13.804;2022-09-03T02:49:29;3.83;;;2.22;;
71381;SDS011;60099;45.660;13.804;2022-09-03T02:51:59;3.50;;;2.45;;
71381;SDS011;60099;45.660;13.804;2022-09-03T02:54:30;4.20;;;2.53;;
71381;SDS011;60099;45.660;13.804;2022-09-03T02:57:00;3.22;;;2.42;;
71381;SDS011;60099;45.660;13.804;2022-09-03T02:59:26;3.78;;;2.20;;
71381;SDS011;60099;45.660;13.804;2022-09-03T03:01:54;5.43;;;2.10;;
71381;SDS011;60099;45.660;13.804;2022-09-03T03:04:20;3.90;;;2.30;;
71381;SDS011;60099;45.660;13.804;2022-09-03T03:06:46;2.67;;;2.10;;
71381;SDS011;60099;45.660;13.804;2022-09-03T03:09:14;4.20;;;2.25;;
71381;SDS011;60099;45.660;13.804;2022-09-03T03:11:41;5.32;;;2.40;;
71381;SDS011;60099;45.660;13.804;2022-09-03T03:14:07;3.42;;;2.60;;
71381;SDS011;60099;45.660;13.804;2022-09-03T03:16:32;3.58;;;2.20;;
71381;SDS011;60099;45.660;13.804;2022-09-03T03:18:59;2.97;;;2.15;;
71381;SDS011;60099;45.660;13.804;2022-09-03T03:21:25;4.07;;;2.33;;
71381;SDS011;60099;45.660;13.804;2022-09-03T03:23:50;4.70;;;2.50;;
71381;SDS011;60099;45.660;13.804;2022-09-03T03:26:17;4.05;;;2.50;;
71381;SDS011;60099;45.660;13.804;2022-09-03T03:28:45;3.10;;;2.35;;
71381;SDS011;60099;45.660;13.804;2022-09-03T03:31:17;3.63;;;2.30;;
71381;SDS011;60099;45.660;13.804;2022-09-03T03:33:49;4.95;;;2.55;;
71381;SDS011;60099;45.660;13.804;2022-09-03T03:36:23;3.88;;;2.38;;
71381;SDS011;60099;45.660;13.804;2022-09-03T03:38:52;3.67;;;2.20;;
71381;SDS011;60099;45.660;13.804;2022-09-03T03:41:20;4.32;;;2.13;;
71381;SDS011;60099;45.660;13.804;2022-09-03T03:43:54;4.55;;;2.50;;
71381;SDS011;60099;45.660;13.804;2022-09-03T03:46:22;3.83;;;2.58;;
71381;SDS011;60099;45.660;13.804;2022-09-03T03:48:48;4.53;;;2.30;;
71381;SDS011;60099;45.660;13.804;2022-09-03T03:51:15;2.85;;;2.17;;
71381;SDS011;60099;45.660;13.804;2022-09-03T03:53:41;4.25;;;2.40;;
71381;SDS011;60099;45.660;13.804;2022-09-03T03:56:08;3.17;;;2.30;;
71381;SDS011;60099;45.660;13.804;2022-09-03T03:58:37;3.45;;;2.30;;
71381;SDS011;60099;45.660;13.804;2022-09-03T04:01:09;3.85;;;2.30;;
71381;SDS011;60099;45.660;13.804;2022-09-03T04:03:40;4.20;;;2.47;;
71381;SDS011;60099;45.660;13.804;2022-09-03T04:06:06;4.72;;;2.22;;
71381;SDS011;60099;45.660;13.804;2022-09-03T04:08:34;3.78;;;2.40;;
71381;SDS011;60099;45.660;13.804;2022-09-03T04:11:02;4.13;;;2.60;;
71381;SDS011;60099;45.660;13.804;2022-09-03T04:13:30;3.25;;;2.22;;
71381;SDS011;60099;45.660;13.804;2022-09-03T04:16:01;3.47;;;2.33;;
71381;SDS011;60099;45.660;13.804;2022-09-03T04:18:29;3.30;;;2.33;;
71381;SDS011;60099;45.660;13.804;2022-09-03T04:20:59;4.25;;;2.50;;
71381;SDS011;60099;45.660;13.804;2022-09-03T04:23:28;3.85;;;2.35;;
71381;SDS011;60099;45.660;13.804;2022-09-03T04:25:58;3.03;;;2.20;;
71381;SDS011;60099;45.660;13.804;2022-09-03T04:28:25;3.65;;;2.30;;
71381;SDS011;60099;45.660;13.804;2022-09-03T04:30:52;5.13;;;2.50;;
71381;SDS011;60099;45.660;13.804;2022-09-03T04:33:18;4.50;;;2.45;;
71381;SDS011;60099;45.660;13.804;2022-09-03T04:35:44;4.03;;;2.30;;
71381;SDS011;60099;45.660;13.804;2022-09-03T04:38:10;2.60;;;2.10;;
71381;SDS011;60099;45.660;13.804;2022-09-03T04:40:36;4.07;;;2.50;;
71381;SDS011;60099;45.660;13.804;2022-09-03T04:43:03;4.00;;;2.28;;
71381;SDS011;60099;45.660;13.804;2022-09-03T04:45:28;4.70;;;2.38;;
71381;SDS011;60099;45.660;13.804;2022-09-03T04:48:00;3.80;;;2.25;;
71381;SDS011;60099;45.660;13.804;2022-09-03T04:50:27;3.92;;;2.58;;
71381;SDS011;60099;45.660;13.804;2022-09-03T04:52:59;3.03;;;2.17;;
71381;SDS011;60099;45.660;13.804;2022-09-03T04:55:27;2.75;;;2.10;;
71381;SDS011;60099;45.660;13.804;2022-09-03T04:57:57;4.22;;;2.10;;
71381;SDS011;60099;45.660;13.804;2022-09-03T05:00:23;4.63;;;2.30;;
71381;SDS011;60099;45.660;13.804;2022-09-03T05:02:49;2.80;;;2.00;;
71381;SDS011;60099;45.660;13.804;2022-09-03T05:05:16;3.95;;;2.10;;
71381;SDS011;60099;45.660;13.804;2022-09-03T05:07:42;3.40;;;2.00;;
71381;SDS011;60099;45.660;13.804;2022-09-03T05:10:09;3.17;;;1.92;;
71381;SDS011;60099;45.660;13.804;2022-09-03T05:12:46;3.70;;;2.00;;
71381;SDS011;60099;45.660;13.804;2022-09-03T05:15:21;3.28;;;2.10;;
71381;SDS011;60099;45.660;13.804;2022-09-03T05:17:47;3.78;;;2.10;;
71381;SDS011;60099;45.660;13.804;2022-09-03T05:20:13;3.85;;;2.22;;
71381;SDS011;60099;45.660;13.804;2022-09-03T05:22:39;3.70;;;2.10;;
71381;SDS011;60099;45.660;13.804;2022-09-03T05:25:06;3.20;;;2.10;;
71381;SDS011;60099;45.660;13.804;2022-09-03T05:27:32;3.33;;;2.30;;
71381;SDS011;60099;45.660;13.804;2022-09-03T05:29:58;2.45;;;2.03;;
71381;SDS011;60099;45.660;13.804;2022-09-03T05:32:24;3.95;;;2.22;;
71381;SDS011;60099;45.660;13.804;2022-09-03T05:34:58;3.15;;;2.17;;
71381;SDS011;60099;45.660;13.804;2022-09-03T05:37:31;3.80;;;2.30;;
71381;SDS011;60099;45.660;13.804;2022-09-03T05:39:57;3.83;;;2.20;;
71381;SDS011;60099;45.660;13.804;2022-09-03T05:42:23;2.70;;;2.00;;
71381;SDS011;60099;45.660;13.804;2022-09-03T05:44:49;4.07;;;2.38;;
71381;SDS011;60099;45.660;13.804;2022-09-03T05:47:15;4.75;;;2.58;;
71381;SDS011;60099;45.660;13.804;2022-09-03T05:49:41;3.80;;;2.20;;
71381;SDS011;60099;45.660;13.804;2022-09-03T05:52:07;5.00;;;2.45;;
71381;SDS011;60099;45.660;13.804;2022-09-03T05:54:34;5.05;;;2.40;;
71381;SDS011;60099;45.660;13.804;2022-09-03T05:57:00;3.30;;;2.33;;
71381;SDS011;60099;45.660;13.804;2022-09-03T05:59:25;3.20;;;2.30;;
71381;SDS011;60099;45.660;13.804;2022-09-03T06:01:51;3.47;;;2.30;;
71381;SDS011;60099;45.660;13.804;2022-09-03T06:04:18;3.17;;;2.25;;
71381;SDS011;60099;45.660;13.804;2022-09-03T06:06:45;4.85;;;2.50;;
71381;SDS011;60099;45.660;13.804;2022-09-03T06:09:13;4.45;;;2.38;;
71381;SDS011;60099;45.660;13.804;2022-09-03T06:11:41;4.25;;;2.50;;
71381;SDS011;60099;45.660;13.804;2022-09-03T06:14:09;3.55;;;2.05;;
71381;SDS011;60099;45.660;13.804;2022-09-03T06:16:40;4.07;;;2.45;;
71381;SDS011;60099;45.660;13.804;2022-09-03T06:19:08;3.47;;;2.53;;
71381;SDS011;60099;45.660;13.804;2022-09-03T06:21:38;3.38;;;2.25;;
71381;SDS011;60099;45.660;13.804;2022-09-03T06:24:13;3.40;;;2.28;;
71381;SDS011;60099;45.660;13.804;2022-09-03T07:01:38;3.95;;;2.33;;
71381;SDS011;60099;45.660;13.804;2022-09-03T07:04:05;3.67;;;2.40;;
71381;SDS011;60099;45.660;13.804;2022-09-03T07:06:34;5.30;;;2.50;;
71381;SDS011;60099;45.660;13.804;2022-09-03T07:09:02;3.72;;;2.20;;
71381;SDS011;60099;45.660;13.804;2022-09-03T07:11:32;5.78;;;2.67;;
71381;SDS011;60099;45.660;13.804;2022-09-03T07:14:00;4.07;;;2.20;;
71381;SDS011;60099;45.660;13.804;2022-09-03T07:16:36;4.80;;;2.40;;
71381;SDS011;60099;45.660;13.804;2022-09-03T07:19:02;3.20;;;2.17;;
71381;SDS011;60099;45.660;13.804;2022-09-03T07:21:30;4.15;;;2.38;;
71381;SDS011;60099;45.660;13.804;2022-09-03T07:24:05;3.30;;;2.22;;
71381;SDS011;60099;45.660;13.804;2022-09-03T07:26:36;3.75;;;2.35;;
71381;SDS011;60099;45.660;13.804;2022-09-03T07:29:05;3.78;;;2.25;;
71381;SDS011;60099;45.660;13.804;2022-09-03T07:31:38;5.78;;;2.38;;
71381;SDS011;60099;45.660;13.804;2022-09-03T07:34:06;4.13;;;2.25;;
71381;SDS011;60099;45.660;13.804;2022-09-03T07:36:35;4.95;;;2.53;;
71381;SDS011;60099;45.660;13.804;2022-09-03T07:39:03;3.08;;;2.30;;
71381;SDS011;60099;45.660;13.804;2022-09-03T07:41:29;3.92;;;2.20;;
71381;SDS011;60099;45.660;13.804;2022-09-03T07:43:57;3.28;;;2.30;;
71381;SDS011;60099;45.660;13.804;2022-09-03T07:46:25;2.25;;;1.80;;
71381;SDS011;60099;45.660;13.804;2022-09-03T07:48:52;2.70;;;1.92;;
71381;SDS011;60099;45.660;13.804;2022-09-03T07:51:20;3.88;;;1.90;;
71381;SDS011;60099;45.660;13.804;2022-09-03T07:53:50;3.78;;;1.80;;
71381;SDS011;60099;45.660;13.804;2022-09-03T07:56:17;2.60;;;1.77;;
71381;SDS011;60099;45.660;13.804;2022-09-03T07:58:43;2.53;;;1.98;;
71381;SDS011;60099;45.660;13.804;2022-09-03T08:01:13;3.03;;;1.80;;
71381;SDS011;60099;45.660;13.804;2022-09-03T08:03:44;2.60;;;1.80;;
71381;SDS011;60099;45.660;13.804;2022-09-03T08:06:12;3.33;;;1.88;;
71381;SDS011;60099;45.660;13.804;2022-09-03T08:08:39;3.05;;;2.08;;
71381;SDS011;60099;45.660;13.804;2022-09-03T08:11:06;3.35;;;1.88;;
71381;SDS011;60099;45.660;13.804;2022-09-03T08:13:35;3.27;;;1.90;;
71381;SDS011;60099;45.660;13.804;2022-09-03T08:16:06;3.30;;;2.28;;
71381;SDS011;60099;45.660;13.804;2022-09-03T08:18:33;2.65;;;1.85;;
71381;SDS011;60099;45.660;13.804;2022-09-03T08:21:21;2.55;;;1.77;;
71381;SDS011;60099;45.660;13.804;2022-09-03T08:23:48;2.60;;;1.90;;
71381;SDS011;60099;45.660;13.804;2022-09-03T08:26:19;2.83;;;2.22;;
71381;SDS011;60099;45.660;13.804;2022-09-03T08:28:46;3.90;;;1.90;;
71381;SDS011;60099;45.660;13.804;2022-09-03T08:31:17;2.78;;;1.77;;
71381;SDS011;60099;45.660;13.804;2022-09-03T08:33:45;2.92;;;1.98;;
71381;SDS011;60099;45.660;13.804;2022-09-03T08:38:41;3.05;;;2.00;;
71381;SDS011;60099;45.660;13.804;2022-09-03T08:41:17;3.05;;;1.90;;
71381;SDS011;60099;45.660;13.804;2022-09-03T08:52:20;2.60;;;1.83;;
71381;SDS011;60099;45.660;13.804;2022-09-03T08:58:02;3.08;;;1.70;;
71381;SDS011;60099;45.660;13.804;2022-09-03T09:14:09;2.50;;;1.90;;
71381;SDS011;60099;45.660;13.804;2022-09-03T09:17:00;3.50;;;2.30;;
71381;SDS011;60099;45.660;13.804;2022-09-03T09:22:26;3.10;;;1.88;;
71381;SDS011;60099;45.660;13.804;2022-09-03T09:24:58;3.85;;;2.20;;
71381;SDS011;60099;45.660;13.804;2022-09-03T09:27:29;4.88;;;2.30;;
71381;SDS011;60099;45.660;13.804;2022-09-03T09:29:57;3.38;;;2.03;;
71381;SDS011;60099;45.660;13.804;2022-09-03T09:32:25;4.25;;;2.20;;
71381;SDS011;60099;45.660;13.804;2022-09-03T09:34:51;3.35;;;2.20;;
71381;SDS011;60099;45.660;13.804;2022-09-03T09:37:18;2.97;;;2.30;;
71381;SDS011;60099;45.660;13.804;2022-09-03T09:39:54;4.53;;;2.15;;
71381;SDS011;60099;45.660;13.804;2022-09-03T09:42:22;2.92;;;2.20;;
71381;SDS011;60099;45.660;13.804;2022-09-03T09:44:48;3.30;;;2.50;;
71381;SDS011;60099;45.660;13.804;2022-09-03T09:49:59;3.00;;;2.30;;
71381;SDS011;60099;45.660;13.804;2022-09-03T09:55:05;4.68;;;2.40;;
71381;SDS011;60099;45.660;13.804;2022-09-03T09:57:38;3.97;;;2.45;;
71381;SDS011;60099;45.660;13.804;2022-09-03T10:00:09;4.03;;;2.33;;
71381;SDS011;60099;45.660;13.804;2022-09-03T10:02:37;2.97;;;2.30;;
71381;SDS011;60099;45.660;13.804;2022-09-03T10:07:58;4.18;;;2.30;;
71381;SDS011;60099;45.660;13.804;2022-09-03T10:10:28;3.55;;;2.13;;
71381;SDS011;60099;45.660;13.804;2022-09-03T10:13:10;3.25;;;2.20;;
71381;SDS011;60099;45.660;13.804;2022-09-03T10:15:41;4.50;;;2.00;;
71381;SDS011;60099;45.660;13.804;2022-09-03T10:26:32;2.55;;;2.10;;
71381;SDS011;60099;45.660;13.804;2022-09-03T10:29:01;4.40;;;2.10;;
71381;SDS011;60099;45.660;13.804;2022-09-03T10:31:49;3.58;;;2.30;;
71381;SDS011;60099;45.660;13.804;2022-09-03T10:34:41;3.58;;;2.03;;
71381;SDS011;60099;45.660;13.804;2022-09-03T10:37:24;3.42;;;2.20;;
71381;SDS011;60099;45.660;13.804;2022-09-03T10:51:27;2.10;;;1.90;;
71381;SDS011;60099;45.660;13.804;2022-09-03T10:54:21;3.47;;;2.10;;
71381;SDS011;60099;45.660;13.804;2022-09-03T11:05:08;4.32;;;2.20;;
71381;SDS011;60099;45.660;13.804;2022-09-03T11:07:42;3.10;;;2.05;;
71381;SDS011;60099;45.660;13.804;2022-09-03T11:10:19;2.78;;;1.88;;
71381;SDS011;60099;45.660;13.804;2022-09-03T11:13:00;4.20;;;2.17;;
71381;SDS011;60099;45.660;13.804;2022-09-03T11:15:30;5.22;;;2.30;;
71381;SDS011;60099;45.660;13.804;2022-09-03T11:18:07;3.50;;;2.15;;
71381;SDS011;60099;45.660;13.804;2022-09-03T11:20:37;3.58;;;2.20;;
71381;SDS011;60099;45.660;13.804;2022-09-03T11:23:04;3.20;;;2.13;;
71381;SDS011;60099;45.660;13.804;2022-09-03T11:25:33;3.15;;;2.13;;
71381;SDS011;60099;45.660;13.804;2022-09-03T11:28:11;4.97;;;2.43;;
71381;SDS011;60099;45.660;13.804;2022-09-03T11:33:31;5.38;;;2.50;;
71381;SDS011;60099;45.660;13.804;2022-09-03T11:36:00;4.25;;;2.38;;
71381;SDS011;60099;45.660;13.804;2022-09-03T11:38:31;4.18;;;2.30;;
71381;SDS011;60099;45.660;13.804;2022-09-03T11:43:25;4.70;;;2.30;;
71381;SDS011;60099;45.660;13.804;2022-09-03T11:46:04;4.50;;;2.13;;
71381;SDS011;60099;45.660;13.804;2022-09-03T11:48:46;3.20;;;2.25;;
71381;SDS011;60099;45.660;13.804;2022-09-03T11:53:54;3.58;;;2.05;;
71381;SDS011;60099;45.660;13.804;2022-09-03T11:56:23;3.55;;;2.30;;
71381;SDS011;60099;45.660;13.804;2022-09-03T12:01:50;3.00;;;2.15;;
71381;SDS011;60099;45.660;13.804;2022-09-03T12:04:24;3.80;;;2.30;;
71381;SDS011;60099;45.660;13.804;2022-09-03T12:07:17;4.15;;;2.35;;
71381;SDS011;60099;45.660;13.804;2022-09-03T12:18:39;3.93;;;2.10;;
71381;SDS011;60099;45.660;13.804;2022-09-03T12:21:07;4.70;;;2.70;;
71381;SDS011;60099;45.660;13.804;2022-09-03T12:23:39;4.10;;;2.20;;
71381;SDS011;60099;45.660;13.804;2022-09-03T12:26:13;2.95;;;2.20;;
71381;SDS011;60099;45.660;13.804;2022-09-03T12:28:41;2.70;;;2.17;;
71381;SDS011;60099;45.660;13.804;2022-09-03T12:34:02;3.25;;;2.10;;
71381;SDS011;60099;45.660;13.804;2022-09-03T12:36:38;3.75;;;2.40;;
71381;SDS011;60099;45.660;13.804;2022-09-03T12:39:10;3.25;;;2.50;;
71381;SDS011;60099;45.660;13.804;2022-09-03T12:42:02;4.03;;;2.28;;
71381;SDS011;60099;45.660;13.804;2022-09-03T12:47:04;4.10;;;2.40;;
71381;SDS011;60099;45.660;13.804;2022-09-03T12:49:38;3.45;;;2.35;;
71381;SDS011;60099;45.660;13.804;2022-09-03T12:52:19;4.60;;;2.40;;
71381;SDS011;60099;45.660;13.804;2022-09-03T12:55:02;5.43;;;2.60;;
71381;SDS011;60099;45.660;13.804;2022-09-03T13:00:03;3.80;;;2.30;;
71381;SDS011;60099;45.660;13.804;2022-09-03T13:05:04;4.03;;;2.50;;
71381;SDS011;60099;45.660;13.804;2022-09-03T13:07:36;3.63;;;2.40;;
71381;SDS011;60099;45.660;13.804;2022-09-03T13:10:06;5.43;;;2.45;;
71381;SDS011;60099;45.660;13.804;2022-09-03T13:12:48;2.58;;;2.20;;
71381;SDS011;60099;45.660;13.804;2022-09-03T13:15:17;3.42;;;2.33;;
71381;SDS011;60099;45.660;13.804;2022-09-03T13:20:24;4.43;;;2.40;;
71381;SDS011;60099;45.660;13.804;2022-09-03T13:23:04;3.58;;;1.98;;
71381;SDS011;60099;45.660;13.804;2022-09-03T13:26:00;6.38;;;2.45;;
71381;SDS011;60099;45.660;13.804;2022-09-03T13:31:01;4.82;;;2.30;;
71381;SDS011;60099;45.660;13.804;2022-09-03T13:33:51;4.90;;;2.60;;
71381;SDS011;60099;45.660;13.804;2022-09-03T13:36:35;3.55;;;2.30;;
71381;SDS011;60099;45.660;13.804;2022-09-03T13:40:05;3.17;;;2.20;;
71381;SDS011;60099;45.660;13.804;2022-09-03T13:42:40;4.13;;;2.20;;
71381;SDS011;60099;45.660;13.804;2022-09-03T13:45:28;3.50;;;2.40;;
71381;SDS011;60099;45.660;13.804;2022-09-03T13:48:25;3.58;;;2.47;;
71381;SDS011;60099;45.660;13.804;2022-09-03T13:54:01;3.42;;;2.30;;
71381;SDS011;60099;45.660;13.804;2022-09-03T14:02:10;4.47;;;2.30;;
71381;SDS011;60099;45.660;13.804;2022-09-03T14:10:34;4.70;;;2.47;;
71381;SDS011;60099;45.660;13.804;2022-09-03T14:16:17;3.00;;;2.00;;
71381;SDS011;60099;45.660;13.804;2022-09-03T14:18:58;3.80;;;2.42;;
71381;SDS011;60099;45.660;13.804;2022-09-03T14:27:03;4.57;;;2.50;;
71381;SDS011;60099;45.660;13.804;2022-09-03T14:29:30;5.82;;;2.85;;
71381;SDS011;60099;45.660;13.804;2022-09-03T14:44:18;3.53;;;2.20;;
71381;SDS011;60099;45.660;13.804;2022-09-03T14:52:58;3.85;;;2.10;;
71381;SDS011;60099;45.660;13.804;2022-09-03T15:09:32;3.75;;;2.20;;
71381;SDS011;60099;45.660;13.804;2022-09-03T15:14:54;3.30;;;2.13;;
71381;SDS011;60099;45.660;13.804;2022-09-03T15:17:31;5.47;;;2.40;;
71381;SDS011;60099;45.660;13.804;2022-09-03T15:23:18;3.75;;;2.10;;
71381;SDS011;60099;45.660;13.804;2022-09-03T15:31:39;3.67;;;2.20;;
71381;SDS011;60099;45.660;13.804;2022-09-03T15:34:48;3.88;;;2.30;;
71381;SDS011;60099;45.660;13.804;2022-09-03T15:37:20;3.60;;;2.10;;
71381;SDS011;60099;45.660;13.804;2022-09-03T15:39:57;3.53;;;2.38;;
71381;SDS011;60099;45.660;13.804;2022-09-03T15:42:31;4.07;;;2.20;;
71381;SDS011;60099;45.660;13.804;2022-09-03T15:45:02;4.22;;;2.20;;
71381;SDS011;60099;45.660;13.804;2022-09-03T15:50:33;3.00;;;2.10;;
71381;SDS011;60099;45.660;13.804;2022-09-03T15:53:38;3.40;;;2.17;;
71381;SDS011;60099;45.660;13.804;2022-09-03T15:56:04;4.07;;;2.10;;
71381;SDS011;60099;45.660;13.804;2022-09-03T16:05:03;3.70;;;2.40;;
71381;SDS011;60099;45.660;13.804;2022-09-03T16:07:22;4.05;;;2.30;;
71381;SDS011;60099;45.660;13.804;2022-09-03T16:10:01;4.18;;;2.63;;
71381;SDS011;60099;45.660;13.804;2022-09-03T16:15:50;4.13;;;2.45;;
71381;SDS011;60099;45.660;13.804;2022-09-03T16:18:39;4.35;;;2.58;;
71381;SDS011;60099;45.660;13.804;2022-09-03T16:26:14;4.38;;;2.15;;
71381;SDS011;60099;45.660;13.804;2022-09-03T16:31:50;4.63;;;2.33;;
71381;SDS011;60099;45.660;13.804;2022-09-03T16:37:49;4.30;;;2.40;;
71381;SDS011;60099;45.660;13.804;2022-09-03T16:43:23;3.20;;;2.33;;
71381;SDS011;60099;45.660;13.804;2022-09-03T16:59:40;4.05;;;2.67;;
71381;SDS011;60099;45.660;13.804;2022-09-03T17:08:40;5.40;;;2.45;;
71381;SDS011;60099;45.660;13.804;2022-09-03T17:22:55;4.93;;;2.67;;
71381;SDS011;60099;45.660;13.804;2022-09-03T17:31:26;4.32;;;2.70;;
71381;SDS011;60099;45.660;13.804;2022-09-03T17:48:00;5.40;;;2.90;;
71381;SDS011;60099;45.660;13.804;2022-09-03T17:50:47;5.50;;;3.20;;
71381;SDS011;60099;45.660;13.804;2022-09-03T17:53:22;4.38;;;3.30;;
71381;SDS011;60099;45.660;13.804;2022-09-03T18:10:23;4.75;;;3.30;;
71381;SDS011;60099;45.660;13.804;2022-09-03T18:18:45;4.18;;;2.90;;
71381;SDS011;60099;45.660;13.804;2022-09-03T18:21:22;5.68;;;3.28;;
71381;SDS011;60099;45.660;13.804;2022-09-03T18:27:11;5.00;;;2.80;;
71381;SDS011;60099;45.660;13.804;2022-09-03T18:30:02;5.05;;;3.08;;
71381;SDS011;60099;45.660;13.804;2022-09-03T18:32:51;4.05;;;2.80;;
71381;SDS011;60099;45.660;13.804;2022-09-03T18:35:35;5.50;;;3.72;;
71381;SDS011;60099;45.660;13.804;2022-09-03T18:38:27;6.00;;;3.80;;
71381;SDS011;60099;45.660;13.804;2022-09-03T18:50:36;5.65;;;4.30;;
71381;SDS011;60099;45.660;13.804;2022-09-03T18:56:50;16.13;;;13.65;;
71381;SDS011;60099;45.660;13.804;2022-09-03T19:06:02;12.65;;;9.43;;
71381;SDS011;60099;45.660;13.804;2022-09-03T19:12:16;10.60;;;7.43;;
71381;SDS011;60099;45.660;13.804;2022-09-03T19:15:19;8.57;;;7.03;;
71381;SDS011;60099;45.660;13.804;2022-09-03T19:21:28;9.75;;;6.30;;
71381;SDS011;60099;45.660;13.804;2022-09-03T19:24:19;7.72;;;5.10;;
71381;SDS011;60099;45.660;13.804;2022-09-03T19:30:06;7.95;;;4.53;;
71381;SDS011;60099;45.660;13.804;2022-09-03T19:36:17;7.90;;;5.15;;
71381;SDS011;60099;45.660;13.804;2022-09-03T19:39:19;8.23;;;5.82;;
71381;SDS011;60099;45.660;13.804;2022-09-03T19:55:26;6.63;;;4.95;;
71381;SDS011;60099;45.660;13.804;2022-09-03T19:58:17;6.40;;;3.75;;
71381;SDS011;60099;45.660;13.804;2022-09-03T20:01:04;6.13;;;3.92;;
71381;SDS011;60099;45.660;13.804;2022-09-03T20:03:49;6.15;;;3.83;;
71381;SDS011;60099;45.660;13.804;2022-09-03T20:06:34;5.38;;;3.65;;
71381;SDS011;60099;45.660;13.804;2022-09-03T20:09:20;6.05;;;3.47;;
71381;SDS011;60099;45.660;13.804;2022-09-03T20:12:15;5.05;;;2.92;;
71381;SDS011;60099;45.660;13.804;2022-09-03T20:14:43;4.85;;;2.80;;
71381;SDS011;60099;45.660;13.804;2022-09-03T20:22:38;4.60;;;2.53;;
71381;SDS011;60099;45.660;13.804;2022-09-03T20:38:46;4.78;;;2.72;;
71381;SDS011;60099;45.660;13.804;2022-09-03T20:44:13;4.05;;;2.72;;
71381;SDS011;60099;45.660;13.804;2022-09-03T20:52:40;5.00;;;2.75;;
71381;SDS011;60099;45.660;13.804;2022-09-03T20:55:33;4.50;;;2.90;;
71381;SDS011;60099;45.660;13.804;2022-09-03T21:03:35;5.22;;;2.65;;
71381;SDS011;60099;45.660;13.804;2022-09-03T21:14:36;4.28;;;2.55;;
71381;SDS011;60099;45.660;13.804;2022-09-03T21:24:55;4.43;;;2.90;;
71381;SDS011;60099;45.660;13.804;2022-09-03T21:27:31;4.68;;;2.90;;
71381;SDS011;60099;45.660;13.804;2022-09-03T21:30:10;4.47;;;2.70;;
71381;SDS011;60099;45.660;13.804;2022-09-03T21:37:51;5.00;;;2.95;;
71381;SDS011;60099;45.660;13.804;2022-09-03T21:40:30;4.55;;;3.10;;
71381;SDS011;60099;45.660;13.804;2022-09-03T21:43:04;3.75;;;2.92;;
71381;SDS011;60099;45.660;13.804;2022-09-03T21:45:44;4.45;;;2.53;;
71381;SDS011;60099;45.660;13.804;2022-09-03T21:48:31;4.05;;;2.80;;
71381;SDS011;60099;45.660;13.804;2022-09-03T21:51:14;3.28;;;2.58;;
71381;SDS011;60099;45.660;13.804;2022-09-03T21:54:13;4.13;;;2.60;;
71381;SDS011;60099;45.660;13.804;2022-09-03T22:02:18;4.25;;;2.60;;
71381;SDS011;60099;45.660;13.804;2022-09-03T22:04:47;4.88;;;2.70;;
71381;SDS011;60099;45.660;13.804;2022-09-03T22:12:43;4.05;;;2.80;;
71381;SDS011;60099;45.660;13.804;2022-09-03T22:15:26;3.45;;;2.50;;
71381;SDS011;60099;45.660;13.804;2022-09-03T22:18:17;4.15;;;2.65;;
71381;SDS011;60099;45.660;13.804;2022-09-03T22:20:47;3.45;;;2.38;;
71381;SDS011;60099;45.660;13.804;2022-09-03T22:26:38;3.00;;;2.40;;
71381;SDS011;60099;45.660;13.804;2022-09-03T22:29:23;3.47;;;2.20;;
71381;SDS011;60099;45.660;13.804;2022-09-03T22:34:40;4.57;;;2.47;;
71381;SDS011;60099;45.660;13.804;2022-09-03T22:37:37;3.70;;;2.35;;
71381;SDS011;60099;45.660;13.804;2022-09-03T22:45:49;3.20;;;2.20;;
71381;SDS011;60099;45.660;13.804;2022-09-03T22:57:12;2.78;;;2.22;;
71381;SDS011;60099;45.660;13.804;2022-09-03T22:59:41;2.47;;;1.70;;
71381;SDS011;60099;45.660;13.804;2022-09-03T23:07:09;3.40;;;2.08;;
71381;SDS011;60099;45.660;13.804;2022-09-03T23:09:59;3.75;;;2.20;;